sensor_id;sensor_type;location;lat;lon;timestamp;temperature;humidity
14877;DHT22;22152;48.158;17.118;2022-12-11T00:00:24;5.10;70.30
14877;DHT22;22152;48.158;17.118;2022-12-11T00:02:50;5.10;70.80
14877;DHT22;22152;48.158;17.118;2022-12-11T00:05:16;5.00;70.10
14877;DHT22;22152;48.158;17.118;2022-12-11T00:07:42;5.00;70.10
14877;DHT22;22152;48.158;17.118;2022-12-11T00:10:08;5.00;70.30
14877;DHT22;22152;48.158;17.118;2022-12-11T00:12:34;5.10;70.30
14877;DHT22;22152;48.158;17.118;2022-12-11T00:15:00;5.10;70.00
14877;DHT22;22152;48.158;17.118;2022-12-11T00:17:26;5.10;69.80
14877;DHT22;22152;48.158;17.118;2022-12-11T00:19:52;5.00;69.90
14877;DHT22;22152;48.158;17.118;2022-12-11T00:22:18;5.00;69.70
14877;DHT22;22152;48.158;17.118;2022-12-11T00:24:43;5.10;69.90
14877;DHT22;22152;48.158;17.118;2022-12-11T00:27:09;5.10;69.90
14877;DHT22;22152;48.158;17.118;2022-12-11T00:29:36;5.10;69.80
14877;DHT22;22152;48.158;17.118;2022-12-11T00:32:01;5.20;69.70
14877;DHT22;22152;48.158;17.118;2022-12-11T00:34:29;5.20;69.20
14877;DHT22;22152;48.158;17.118;2022-12-11T00:36:54;5.10;69.40
14877;DHT22;22152;48.158;17.118;2022-12-11T00:39:20;5.10;69.40
14877;DHT22;22152;48.158;17.118;2022-12-11T00:41:46;5.20;69.60
14877;DHT22;22152;48.158;17.118;2022-12-11T00:44:12;5.10;69.30
14877;DHT22;22152;48.158;17.118;2022-12-11T00:46:38;5.10;69.30
14877;DHT22;22152;48.158;17.118;2022-12-11T00:49:03;5.20;69.40
14877;DHT22;22152;48.158;17.118;2022-12-11T00:51:29;5.20;69.30
14877;DHT22;22152;48.158;17.118;2022-12-11T00:53:55;5.20;69.20
14877;DHT22;22152;48.158;17.118;2022-12-11T00:56:22;5.10;69.10
14877;DHT22;22152;48.158;17.118;2022-12-11T00:58:48;5.10;69.40
14877;DHT22;22152;48.158;17.118;2022-12-11T01:01:19;5.20;69.30
14877;DHT22;22152;48.158;17.118;2022-12-11T01:03:47;5.20;69.20
14877;DHT22;22152;48.158;17.118;2022-12-11T01:06:16;5.10;69.00
14877;DHT22;22152;48.158;17.118;2022-12-11T01:08:44;5.10;69.00
14877;DHT22;22152;48.158;17.118;2022-12-11T01:11:14;5.00;69.00
14877;DHT22;22152;48.158;17.118;2022-12-11T01:13:41;5.00;69.10
14877;DHT22;22152;48.158;17.118;2022-12-11T01:16:11;5.00;69.40
14877;DHT22;22152;48.158;17.118;2022-12-11T01:18:38;5.10;70.10
14877;DHT22;22152;48.158;17.118;2022-12-11T01:21:09;5.10;69.40
14877;DHT22;22152;48.158;17.118;2022-12-11T01:23:36;5.10;69.30
14877;DHT22;22152;48.158;17.118;2022-12-11T01:26:08;5.10;69.00
14877;DHT22;22152;48.158;17.118;2022-12-11T01:28:37;5.10;69.80
14877;DHT22;22152;48.158;17.118;2022-12-11T01:31:12;5.10;69.10
14877;DHT22;22152;48.158;17.118;2022-12-11T01:33:39;5.10;68.80
14877;DHT22;22152;48.158;17.118;2022-12-11T01:36:10;5.10;68.70
14877;DHT22;22152;48.158;17.118;2022-12-11T01:38:44;5.10;68.80
14877;DHT22;22152;48.158;17.118;2022-12-11T01:41:10;5.20;68.80
14877;DHT22;22152;48.158;17.118;2022-12-11T01:46:22;5.30;68.60
14877;DHT22;22152;48.158;17.118;2022-12-11T01:48:49;5.30;68.30
14877;DHT22;22152;48.158;17.118;2022-12-11T01:51:15;5.20;68.50
14877;DHT22;22152;48.158;17.118;2022-12-11T01:53:46;5.20;68.60
14877;DHT22;22152;48.158;17.118;2022-12-11T01:56:15;5.30;68.80
14877;DHT22;22152;48.158;17.118;2022-12-11T01:58:46;5.20;68.40
14877;DHT22;22152;48.158;17.118;2022-12-11T02:01:21;5.20;68.70
14877;DHT22;22152;48.158;17.118;2022-12-11T02:03:51;5.20;68.70
14877;DHT22;22152;48.158;17.118;2022-12-11T02:06:35;5.20;69.10
14877;DHT22;22152;48.158;17.118;2022-12-11T02:09:06;5.20;69.00
14877;DHT22;22152;48.158;17.118;2022-12-11T02:11:41;5.20;68.90
14877;DHT22;22152;48.158;17.118;2022-12-11T02:17:42;5.10;68.70
14877;DHT22;22152;48.158;17.118;2022-12-11T02:23:13;5.20;68.50
14877;DHT22;22152;48.158;17.118;2022-12-11T02:25:54;5.20;68.50
14877;DHT22;22152;48.158;17.118;2022-12-11T02:28:38;5.20;68.50
14877;DHT22;22152;48.158;17.118;2022-12-11T02:31:09;5.10;68.80
14877;DHT22;22152;48.158;17.118;2022-12-11T02:33:48;5.10;68.60
14877;DHT22;22152;48.158;17.118;2022-12-11T02:36:47;5.10;68.40
14877;DHT22;22152;48.158;17.118;2022-12-11T02:39:17;5.10;68.30
14877;DHT22;22152;48.158;17.118;2022-12-11T02:41:48;5.10;68.30
14877;DHT22;22152;48.158;17.118;2022-12-11T02:44:18;5.10;68.30
14877;DHT22;22152;48.158;17.118;2022-12-11T02:46:47;5.10;68.30
14877;DHT22;22152;48.158;17.118;2022-12-11T02:49:13;5.10;68.50
14877;DHT22;22152;48.158;17.118;2022-12-11T02:51:41;5.10;68.30
14877;DHT22;22152;48.158;17.118;2022-12-11T02:54:13;5.10;68.00
14877;DHT22;22152;48.158;17.118;2022-12-11T02:56:47;5.10;68.30
14877;DHT22;22152;48.158;17.118;2022-12-11T02:59:21;5.00;68.30
14877;DHT22;22152;48.158;17.118;2022-12-11T03:01:50;5.10;68.40
14877;DHT22;22152;48.158;17.118;2022-12-11T03:04:16;5.00;68.20
14877;DHT22;22152;48.158;17.118;2022-12-11T03:06:46;5.00;68.10
14877;DHT22;22152;48.158;17.118;2022-12-11T03:09:13;5.00;68.50
14877;DHT22;22152;48.158;17.118;2022-12-11T03:11:39;5.00;68.30
14877;DHT22;22152;48.158;17.118;2022-12-11T03:14:06;5.00;68.00
14877;DHT22;22152;48.158;17.118;2022-12-11T03:16:35;5.00;68.20
14877;DHT22;22152;48.158;17.118;2022-12-11T03:19:19;5.00;68.40
14877;DHT22;22152;48.158;17.118;2022-12-11T03:25:02;5.00;68.40
14877;DHT22;22152;48.158;17.118;2022-12-11T03:27:40;5.00;68.40
14877;DHT22;22152;48.158;17.118;2022-12-11T03:30:13;5.00;68.80
14877;DHT22;22152;48.158;17.118;2022-12-11T03:33:02;5.00;68.80
14877;DHT22;22152;48.158;17.118;2022-12-11T03:35:41;4.90;68.90
14877;DHT22;22152;48.158;17.118;2022-12-11T03:38:22;4.90;69.10
14877;DHT22;22152;48.158;17.118;2022-12-11T03:40:53;4.90;70.00
14877;DHT22;22152;48.158;17.118;2022-12-11T03:43:21;5.00;70.00
14877;DHT22;22152;48.158;17.118;2022-12-11T03:45:48;5.00;69.80
14877;DHT22;22152;48.158;17.118;2022-12-11T03:48:16;4.90;69.00
14877;DHT22;22152;48.158;17.118;2022-12-11T03:50:45;5.00;69.10
14877;DHT22;22152;48.158;17.118;2022-12-11T03:53:12;4.90;69.10
14877;DHT22;22152;48.158;17.118;2022-12-11T03:55:39;4.90;69.30
14877;DHT22;22152;48.158;17.118;2022-12-11T03:58:06;4.90;69.50
14877;DHT22;22152;48.158;17.118;2022-12-11T04:00:32;5.00;69.60
14877;DHT22;22152;48.158;17.118;2022-12-11T04:02:58;5.00;69.70
14877;DHT22;22152;48.158;17.118;2022-12-11T04:05:49;5.00;69.90
14877;DHT22;22152;48.158;17.118;2022-12-11T04:08:18;4.90;70.00
14877;DHT22;22152;48.158;17.118;2022-12-11T04:10:48;4.80;70.30
14877;DHT22;22152;48.158;17.118;2022-12-11T04:13:38;4.80;70.80
14877;DHT22;22152;48.158;17.118;2022-12-11T04:16:05;4.70;70.70
14877;DHT22;22152;48.158;17.118;2022-12-11T04:18:31;4.70;71.00
14877;DHT22;22152;48.158;17.118;2022-12-11T04:21:16;4.70;71.50
14877;DHT22;22152;48.158;17.118;2022-12-11T04:24:00;4.60;72.10
14877;DHT22;22152;48.158;17.118;2022-12-11T04:26:45;4.60;72.30
14877;DHT22;22152;48.158;17.118;2022-12-11T04:29:12;4.60;72.10
14877;DHT22;22152;48.158;17.118;2022-12-11T04:31:39;4.70;72.30
14877;DHT22;22152;48.158;17.118;2022-12-11T04:34:04;4.60;72.20
14877;DHT22;22152;48.158;17.118;2022-12-11T04:36:30;4.60;72.50
14877;DHT22;22152;48.158;17.118;2022-12-11T04:38:56;4.50;72.60
14877;DHT22;22152;48.158;17.118;2022-12-11T04:41:22;4.50;72.70
14877;DHT22;22152;48.158;17.118;2022-12-11T04:43:48;4.50;73.00
14877;DHT22;22152;48.158;17.118;2022-12-11T04:46:17;4.40;73.50
14877;DHT22;22152;48.158;17.118;2022-12-11T04:48:45;4.30;73.90
14877;DHT22;22152;48.158;17.118;2022-12-11T04:51:12;4.20;74.20
14877;DHT22;22152;48.158;17.118;2022-12-11T04:53:39;4.20;74.30
14877;DHT22;22152;48.158;17.118;2022-12-11T04:56:06;4.20;74.50
14877;DHT22;22152;48.158;17.118;2022-12-11T04:58:33;4.30;74.30
14877;DHT22;22152;48.158;17.118;2022-12-11T05:01:10;4.40;74.10
14877;DHT22;22152;48.158;17.118;2022-12-11T05:03:41;4.40;74.00
14877;DHT22;22152;48.158;17.118;2022-12-11T05:06:08;4.40;73.10
14877;DHT22;22152;48.158;17.118;2022-12-11T05:08:36;4.40;72.70
14877;DHT22;22152;48.158;17.118;2022-12-11T05:11:12;4.40;72.30
14877;DHT22;22152;48.158;17.118;2022-12-11T05:13:40;4.50;72.20
14877;DHT22;22152;48.158;17.118;2022-12-11T05:16:13;4.50;71.90
14877;DHT22;22152;48.158;17.118;2022-12-11T05:18:39;4.50;71.80
14877;DHT22;22152;48.158;17.118;2022-12-11T05:21:08;4.40;71.70
14877;DHT22;22152;48.158;17.118;2022-12-11T05:23:36;4.50;72.00
14877;DHT22;22152;48.158;17.118;2022-12-11T05:26:12;4.50;71.30
14877;DHT22;22152;48.158;17.118;2022-12-11T05:28:40;4.50;71.70
14877;DHT22;22152;48.158;17.118;2022-12-11T05:31:17;4.40;71.60
14877;DHT22;22152;48.158;17.118;2022-12-11T05:33:47;4.40;71.90
14877;DHT22;22152;48.158;17.118;2022-12-11T05:36:18;4.40;72.30
14877;DHT22;22152;48.158;17.118;2022-12-11T05:38:47;4.40;72.40
14877;DHT22;22152;48.158;17.118;2022-12-11T05:41:16;4.40;72.10
14877;DHT22;22152;48.158;17.118;2022-12-11T05:43:43;4.40;72.00
14877;DHT22;22152;48.158;17.118;2022-12-11T05:46:12;4.40;73.20
14877;DHT22;22152;48.158;17.118;2022-12-11T05:48:42;4.40;72.30
14877;DHT22;22152;48.158;17.118;2022-12-11T05:51:09;4.40;72.20
14877;DHT22;22152;48.158;17.118;2022-12-11T05:53:36;4.40;72.50
14877;DHT22;22152;48.158;17.118;2022-12-11T05:56:11;4.40;72.70
14877;DHT22;22152;48.158;17.118;2022-12-11T05:58:40;4.30;72.80
14877;DHT22;22152;48.158;17.118;2022-12-11T06:01:11;4.30;73.30
14877;DHT22;22152;48.158;17.118;2022-12-11T06:03:40;4.30;73.30
14877;DHT22;22152;48.158;17.118;2022-12-11T06:06:06;4.20;73.40
14877;DHT22;22152;48.158;17.118;2022-12-11T06:08:33;4.20;73.70
14877;DHT22;22152;48.158;17.118;2022-12-11T06:11:00;4.20;73.90
14877;DHT22;22152;48.158;17.118;2022-12-11T06:13:26;4.20;74.00
14877;DHT22;22152;48.158;17.118;2022-12-11T06:15:52;4.20;74.30
14877;DHT22;22152;48.158;17.118;2022-12-11T06:18:18;4.20;74.50
14877;DHT22;22152;48.158;17.118;2022-12-11T06:20:44;4.20;74.20
14877;DHT22;22152;48.158;17.118;2022-12-11T06:23:09;4.10;74.40
14877;DHT22;22152;48.158;17.118;2022-12-11T06:25:38;4.10;74.70
14877;DHT22;22152;48.158;17.118;2022-12-11T06:41:53;3.80;76.40
14877;DHT22;22152;48.158;17.118;2022-12-11T06:44:19;3.80;76.70
14877;DHT22;22152;48.158;17.118;2022-12-11T06:46:45;3.70;77.00
14877;DHT22;22152;48.158;17.118;2022-12-11T06:49:10;3.70;77.20
14877;DHT22;22152;48.158;17.118;2022-12-11T06:51:36;3.70;77.30
14877;DHT22;22152;48.158;17.118;2022-12-11T06:54:02;3.80;77.30
14877;DHT22;22152;48.158;17.118;2022-12-11T06:56:28;3.70;77.40
14877;DHT22;22152;48.158;17.118;2022-12-11T06:58:54;3.60;77.50
14877;DHT22;22152;48.158;17.118;2022-12-11T07:01:26;3.60;77.90
14877;DHT22;22152;48.158;17.118;2022-12-11T07:03:57;3.70;78.30
14877;DHT22;22152;48.158;17.118;2022-12-11T07:06:25;3.60;78.20
14877;DHT22;22152;48.158;17.118;2022-12-11T07:08:53;3.70;78.60
14877;DHT22;22152;48.158;17.118;2022-12-11T07:11:19;3.60;78.30
14877;DHT22;22152;48.158;17.118;2022-12-11T07:13:46;3.60;78.50
14877;DHT22;22152;48.158;17.118;2022-12-11T07:16:13;3.50;78.80
14877;DHT22;22152;48.158;17.118;2022-12-11T07:18:42;3.40;79.30
14877;DHT22;22152;48.158;17.118;2022-12-11T07:21:12;3.40;79.70
14877;DHT22;22152;48.158;17.118;2022-12-11T07:23:39;3.30;80.10
14877;DHT22;22152;48.158;17.118;2022-12-11T07:26:10;3.30;80.20
14877;DHT22;22152;48.158;17.118;2022-12-11T07:28:38;3.20;80.70
14877;DHT22;22152;48.158;17.118;2022-12-11T07:31:09;3.20;80.70
14877;DHT22;22152;48.158;17.118;2022-12-11T07:33:40;3.10;80.90
14877;DHT22;22152;48.158;17.118;2022-12-11T07:36:07;3.20;81.70
14877;DHT22;22152;48.158;17.118;2022-12-11T07:38:35;3.10;81.50
14877;DHT22;22152;48.158;17.118;2022-12-11T07:41:02;3.10;82.10
14877;DHT22;22152;48.158;17.118;2022-12-11T07:43:30;3.20;81.90
14877;DHT22;22152;48.158;17.118;2022-12-11T07:46:04;3.20;81.80
14877;DHT22;22152;48.158;17.118;2022-12-11T07:48:36;3.20;81.90
14877;DHT22;22152;48.158;17.118;2022-12-11T07:51:14;3.10;82.10
14877;DHT22;22152;48.158;17.118;2022-12-11T07:54:02;3.00;82.00
14877;DHT22;22152;48.158;17.118;2022-12-11T07:56:45;3.00;82.60
14877;DHT22;22152;48.158;17.118;2022-12-11T07:59:12;3.00;82.90
14877;DHT22;22152;48.158;17.118;2022-12-11T08:01:39;3.10;82.80
14877;DHT22;22152;48.158;17.118;2022-12-11T08:04:06;3.10;82.50
14877;DHT22;22152;48.158;17.118;2022-12-11T08:06:35;3.20;82.50
14877;DHT22;22152;48.158;17.118;2022-12-11T08:09:06;3.30;82.80
14877;DHT22;22152;48.158;17.118;2022-12-11T08:11:33;3.20;81.90
14877;DHT22;22152;48.158;17.118;2022-12-11T08:13:59;3.20;82.00
14877;DHT22;22152;48.158;17.118;2022-12-11T08:16:25;3.20;82.10
14877;DHT22;22152;48.158;17.118;2022-12-11T08:18:51;3.20;81.90
14877;DHT22;22152;48.158;17.118;2022-12-11T08:21:20;3.20;82.10
14877;DHT22;22152;48.158;17.118;2022-12-11T08:23:48;3.30;82.60
14877;DHT22;22152;48.158;17.118;2022-12-11T08:26:17;3.40;82.10
14877;DHT22;22152;48.158;17.118;2022-12-11T08:28:45;3.40;81.80
14877;DHT22;22152;48.158;17.118;2022-12-11T08:31:12;3.40;82.00
14877;DHT22;22152;48.158;17.118;2022-12-11T08:33:39;3.40;81.60
14877;DHT22;22152;48.158;17.118;2022-12-11T08:36:08;3.40;81.70
14877;DHT22;22152;48.158;17.118;2022-12-11T08:38:36;3.40;81.80
14877;DHT22;22152;48.158;17.118;2022-12-11T08:41:23;3.50;82.00
14877;DHT22;22152;48.158;17.118;2022-12-11T08:43:51;3.50;80.70
14877;DHT22;22152;48.158;17.118;2022-12-11T08:46:25;3.50;81.20
14877;DHT22;22152;48.158;17.118;2022-12-11T08:48:53;3.50;80.40
14877;DHT22;22152;48.158;17.118;2022-12-11T08:51:22;3.50;80.30
14877;DHT22;22152;48.158;17.118;2022-12-11T08:53:52;3.50;80.10
14877;DHT22;22152;48.158;17.118;2022-12-11T08:56:19;3.50;80.00
14877;DHT22;22152;48.158;17.118;2022-12-11T08:58:47;3.50;80.00
14877;DHT22;22152;48.158;17.118;2022-12-11T09:01:24;3.60;79.70
14877;DHT22;22152;48.158;17.118;2022-12-11T09:03:52;3.60;79.90
14877;DHT22;22152;48.158;17.118;2022-12-11T09:06:22;3.70;79.20
14877;DHT22;22152;48.158;17.118;2022-12-11T09:08:51;3.70;79.20
14877;DHT22;22152;48.158;17.118;2022-12-11T09:11:22;3.70;78.80
14877;DHT22;22152;48.158;17.118;2022-12-11T09:13:50;3.70;79.00
14877;DHT22;22152;48.158;17.118;2022-12-11T09:16:18;3.70;79.00
14877;DHT22;22152;48.158;17.118;2022-12-11T09:18:47;3.60;78.50
14877;DHT22;22152;48.158;17.118;2022-12-11T09:21:16;3.70;79.90
14877;DHT22;22152;48.158;17.118;2022-12-11T09:23:44;3.80;79.10
14877;DHT22;22152;48.158;17.118;2022-12-11T09:26:13;3.90;78.90
14877;DHT22;22152;48.158;17.118;2022-12-11T09:28:42;3.90;78.00
14877;DHT22;22152;48.158;17.118;2022-12-11T09:31:17;4.00;77.30
14877;DHT22;22152;48.158;17.118;2022-12-11T09:33:45;4.10;77.10
14877;DHT22;22152;48.158;17.118;2022-12-11T09:36:11;4.20;77.10
14877;DHT22;22152;48.158;17.118;2022-12-11T09:38:37;4.30;75.90
14877;DHT22;22152;48.158;17.118;2022-12-11T09:46:56;4.30;74.40
14877;DHT22;22152;48.158;17.118;2022-12-11T09:49:38;4.40;74.40
14877;DHT22;22152;48.158;17.118;2022-12-11T09:52:22;4.50;73.60
14877;DHT22;22152;48.158;17.118;2022-12-11T09:54:58;4.50;73.10
14877;DHT22;22152;48.158;17.118;2022-12-11T10:00:08;4.40;72.10
14877;DHT22;22152;48.158;17.118;2022-12-11T10:05:54;4.30;72.10
14877;DHT22;22152;48.158;17.118;2022-12-11T10:08:46;4.30;71.60
14877;DHT22;22152;48.158;17.118;2022-12-11T10:14:44;4.30;71.10
14877;DHT22;22152;48.158;17.118;2022-12-11T10:17:27;4.20;71.40
14877;DHT22;22152;48.158;17.118;2022-12-11T10:20:05;4.30;71.50
14877;DHT22;22152;48.158;17.118;2022-12-11T10:22:43;4.30;71.40
14877;DHT22;22152;48.158;17.118;2022-12-11T10:25:23;4.20;71.20
14877;DHT22;22152;48.158;17.118;2022-12-11T10:27:51;4.20;72.00
14877;DHT22;22152;48.158;17.118;2022-12-11T10:30:21;4.30;71.70
14877;DHT22;22152;48.158;17.118;2022-12-11T10:35:37;4.40;70.90
14877;DHT22;22152;48.158;17.118;2022-12-11T10:38:19;4.40;70.70
14877;DHT22;22152;48.158;17.118;2022-12-11T10:40:55;4.40;70.50
14877;DHT22;22152;48.158;17.118;2022-12-11T10:43:36;4.50;70.60
14877;DHT22;22152;48.158;17.118;2022-12-11T10:46:04;4.60;71.50
14877;DHT22;22152;48.158;17.118;2022-12-11T10:48:32;4.70;70.10
14877;DHT22;22152;48.158;17.118;2022-12-11T10:50:59;4.80;70.00
14877;DHT22;22152;48.158;17.118;2022-12-11T10:53:27;4.80;69.50
14877;DHT22;22152;48.158;17.118;2022-12-11T10:55:55;4.90;68.60
14877;DHT22;22152;48.158;17.118;2022-12-11T10:58:25;4.90;68.80
14877;DHT22;22152;48.158;17.118;2022-12-11T11:01:15;4.80;67.80
14877;DHT22;22152;48.158;17.118;2022-12-11T11:03:56;4.80;67.90
14877;DHT22;22152;48.158;17.118;2022-12-11T11:06:24;4.80;68.10
14877;DHT22;22152;48.158;17.118;2022-12-11T11:08:54;4.80;67.20
14877;DHT22;22152;48.158;17.118;2022-12-11T11:11:31;4.70;66.80
14877;DHT22;22152;48.158;17.118;2022-12-11T11:14:16;4.60;66.80
14877;DHT22;22152;48.158;17.118;2022-12-11T11:16:46;4.60;67.90
14877;DHT22;22152;48.158;17.118;2022-12-11T11:19:30;4.50;66.80
14877;DHT22;22152;48.158;17.118;2022-12-11T11:22:00;4.60;66.80
14877;DHT22;22152;48.158;17.118;2022-12-11T11:24:39;4.60;66.70
14877;DHT22;22152;48.158;17.118;2022-12-11T11:27:29;4.70;66.60
14877;DHT22;22152;48.158;17.118;2022-12-11T11:30:02;4.60;65.70
14877;DHT22;22152;48.158;17.118;2022-12-11T11:32:36;4.50;65.50
14877;DHT22;22152;48.158;17.118;2022-12-11T11:35:18;4.60;66.00
14877;DHT22;22152;48.158;17.118;2022-12-11T11:40:54;4.60;66.10
14877;DHT22;22152;48.158;17.118;2022-12-11T11:44:01;4.60;65.00
14877;DHT22;22152;48.158;17.118;2022-12-11T11:52:11;4.40;64.80
14877;DHT22;22152;48.158;17.118;2022-12-11T11:55:06;4.40;64.40
14877;DHT22;22152;48.158;17.118;2022-12-11T11:57:35;4.40;64.00
14877;DHT22;22152;48.158;17.118;2022-12-11T12:00:14;4.30;63.80
14877;DHT22;22152;48.158;17.118;2022-12-11T12:02:43;4.30;63.80
14877;DHT22;22152;48.158;17.118;2022-12-11T12:05:12;4.30;63.30
14877;DHT22;22152;48.158;17.118;2022-12-11T12:10:37;4.40;63.10
14877;DHT22;22152;48.158;17.118;2022-12-11T12:13:43;4.40;63.30
14877;DHT22;22152;48.158;17.118;2022-12-11T12:16:34;4.50;63.10
14877;DHT22;22152;48.158;17.118;2022-12-11T12:25:27;4.40;62.50
14877;DHT22;22152;48.158;17.118;2022-12-11T12:40:13;4.30;61.80
14877;DHT22;22152;48.158;17.118;2022-12-11T12:43:04;4.40;61.60
14877;DHT22;22152;48.158;17.118;2022-12-11T12:46:18;4.40;61.90
14877;DHT22;22152;48.158;17.118;2022-12-11T12:48:49;4.30;60.30
14877;DHT22;22152;48.158;17.118;2022-12-11T12:51:16;4.30;60.70
14877;DHT22;22152;48.158;17.118;2022-12-11T12:53:56;4.30;61.30
14877;DHT22;22152;48.158;17.118;2022-12-11T12:56:25;4.40;60.90
14877;DHT22;22152;48.158;17.118;2022-12-11T12:58:52;4.40;60.40
14877;DHT22;22152;48.158;17.118;2022-12-11T13:01:23;4.40;60.10
14877;DHT22;22152;48.158;17.118;2022-12-11T13:03:57;4.40;59.80
14877;DHT22;22152;48.158;17.118;2022-12-11T13:09:23;4.30;59.70
14877;DHT22;22152;48.158;17.118;2022-12-11T13:11:53;4.30;59.70
14877;DHT22;22152;48.158;17.118;2022-12-11T13:14:30;4.30;59.80
14877;DHT22;22152;48.158;17.118;2022-12-11T13:17:25;4.30;59.90
14877;DHT22;22152;48.158;17.118;2022-12-11T13:20:20;4.30;59.90
14877;DHT22;22152;48.158;17.118;2022-12-11T13:22:53;4.20;59.60
14877;DHT22;22152;48.158;17.118;2022-12-11T13:25:28;4.10;59.40
14877;DHT22;22152;48.158;17.118;2022-12-11T13:28:07;4.10;59.50
14877;DHT22;22152;48.158;17.118;2022-12-11T13:31:07;4.20;59.50
14877;DHT22;22152;48.158;17.118;2022-12-11T13:33:52;4.10;59.40
14877;DHT22;22152;48.158;17.118;2022-12-11T13:38:54;4.10;59.60
14877;DHT22;22152;48.158;17.118;2022-12-11T13:41:22;4.10;59.40
14877;DHT22;22152;48.158;17.118;2022-12-11T13:43:48;4.10;59.20
14877;DHT22;22152;48.158;17.118;2022-12-11T13:46:20;4.00;59.20
14877;DHT22;22152;48.158;17.118;2022-12-11T13:48:52;4.00;59.30
14877;DHT22;22152;48.158;17.118;2022-12-11T13:51:27;4.00;59.00
14877;DHT22;22152;48.158;17.118;2022-12-11T13:54:13;4.00;59.20
14877;DHT22;22152;48.158;17.118;2022-12-11T13:59:52;4.00;59.20
14877;DHT22;22152;48.158;17.118;2022-12-11T14:02:33;4.00;59.30
14877;DHT22;22152;48.158;17.118;2022-12-11T14:05:07;3.90;58.70
14877;DHT22;22152;48.158;17.118;2022-12-11T14:07:41;3.90;58.90
14877;DHT22;22152;48.158;17.118;2022-12-11T14:10:13;3.90;59.00
14877;DHT22;22152;48.158;17.118;2022-12-11T14:15:18;3.80;59.30
14877;DHT22;22152;48.158;17.118;2022-12-11T14:17:45;3.90;59.90
14877;DHT22;22152;48.158;17.118;2022-12-11T14:20:19;3.80;58.80
14877;DHT22;22152;48.158;17.118;2022-12-11T14:22:47;3.80;58.70
14877;DHT22;22152;48.158;17.118;2022-12-11T14:25:23;3.90;58.60
14877;DHT22;22152;48.158;17.118;2022-12-11T14:27:53;3.80;58.50
14877;DHT22;22152;48.158;17.118;2022-12-11T14:30:26;3.80;58.50
14877;DHT22;22152;48.158;17.118;2022-12-11T14:32:56;3.90;58.70
14877;DHT22;22152;48.158;17.118;2022-12-11T14:35:26;3.90;58.60
14877;DHT22;22152;48.158;17.118;2022-12-11T14:37:54;3.90;58.50
14877;DHT22;22152;48.158;17.118;2022-12-11T14:40:29;3.90;58.30
14877;DHT22;22152;48.158;17.118;2022-12-11T14:43:01;3.90;58.50
14877;DHT22;22152;48.158;17.118;2022-12-11T14:45:38;3.90;58.20
14877;DHT22;22152;48.158;17.118;2022-12-11T14:48:11;3.80;58.00
14877;DHT22;22152;48.158;17.118;2022-12-11T14:50:45;3.80;58.40
14877;DHT22;22152;48.158;17.118;2022-12-11T14:53:22;3.80;58.20
14877;DHT22;22152;48.158;17.118;2022-12-11T14:55:51;3.80;58.10
14877;DHT22;22152;48.158;17.118;2022-12-11T14:58:24;3.80;58.00
14877;DHT22;22152;48.158;17.118;2022-12-11T15:00:58;3.80;58.00
14877;DHT22;22152;48.158;17.118;2022-12-11T15:03:44;3.80;58.50
14877;DHT22;22152;48.158;17.118;2022-12-11T15:06:46;3.70;57.90
14877;DHT22;22152;48.158;17.118;2022-12-11T15:09:26;3.80;57.90
14877;DHT22;22152;48.158;17.118;2022-12-11T15:11:55;3.70;57.60
14877;DHT22;22152;48.158;17.118;2022-12-11T15:14:24;3.70;57.70
14877;DHT22;22152;48.158;17.118;2022-12-11T15:16:52;3.60;57.40
14877;DHT22;22152;48.158;17.118;2022-12-11T15:19:23;3.50;57.30
14877;DHT22;22152;48.158;17.118;2022-12-11T15:21:52;3.50;57.70
14877;DHT22;22152;48.158;17.118;2022-12-11T15:24:29;3.50;57.70
14877;DHT22;22152;48.158;17.118;2022-12-11T15:27:04;3.60;57.80
14877;DHT22;22152;48.158;17.118;2022-12-11T15:29:36;3.50;57.60
14877;DHT22;22152;48.158;17.118;2022-12-11T15:34:44;3.60;57.50
14877;DHT22;22152;48.158;17.118;2022-12-11T15:37:17;3.60;57.60
14877;DHT22;22152;48.158;17.118;2022-12-11T15:39:43;3.60;57.50
14877;DHT22;22152;48.158;17.118;2022-12-11T15:42:12;3.60;57.40
14877;DHT22;22152;48.158;17.118;2022-12-11T15:44:40;3.50;57.20
14877;DHT22;22152;48.158;17.118;2022-12-11T15:47:20;3.50;57.20
14877;DHT22;22152;48.158;17.118;2022-12-11T15:50:06;3.40;57.20
14877;DHT22;22152;48.158;17.118;2022-12-11T15:52:37;3.50;57.30
14877;DHT22;22152;48.158;17.118;2022-12-11T15:55:03;3.50;57.10
14877;DHT22;22152;48.158;17.118;2022-12-11T15:57:29;3.40;57.00
14877;DHT22;22152;48.158;17.118;2022-12-11T15:59:55;3.40;57.00
14877;DHT22;22152;48.158;17.118;2022-12-11T16:02:22;3.30;57.20
14877;DHT22;22152;48.158;17.118;2022-12-11T16:04:48;3.30;57.30
14877;DHT22;22152;48.158;17.118;2022-12-11T16:07:20;3.40;57.30
14877;DHT22;22152;48.158;17.118;2022-12-11T16:09:47;3.40;57.20
14877;DHT22;22152;48.158;17.118;2022-12-11T16:12:13;3.40;57.20
14877;DHT22;22152;48.158;17.118;2022-12-11T16:14:40;3.30;57.20
14877;DHT22;22152;48.158;17.118;2022-12-11T16:17:07;3.30;57.30
14877;DHT22;22152;48.158;17.118;2022-12-11T16:19:34;3.30;57.30
14877;DHT22;22152;48.158;17.118;2022-12-11T16:22:00;3.30;57.20
14877;DHT22;22152;48.158;17.118;2022-12-11T16:24:27;3.30;57.40
14877;DHT22;22152;48.158;17.118;2022-12-11T16:26:53;3.30;57.50
14877;DHT22;22152;48.158;17.118;2022-12-11T16:29:19;3.20;57.40
14877;DHT22;22152;48.158;17.118;2022-12-11T16:31:44;3.20;57.30
14877;DHT22;22152;48.158;17.118;2022-12-11T16:34:10;3.20;57.50
14877;DHT22;22152;48.158;17.118;2022-12-11T16:36:36;3.20;57.50
14877;DHT22;22152;48.158;17.118;2022-12-11T16:39:03;3.10;57.40
14877;DHT22;22152;48.158;17.118;2022-12-11T16:41:28;3.10;57.30
14877;DHT22;22152;48.158;17.118;2022-12-11T16:43:55;3.10;57.30
14877;DHT22;22152;48.158;17.118;2022-12-11T16:46:21;3.10;57.20
14877;DHT22;22152;48.158;17.118;2022-12-11T16:48:48;3.10;57.30
14877;DHT22;22152;48.158;17.118;2022-12-11T16:51:15;3.10;57.30
14877;DHT22;22152;48.158;17.118;2022-12-11T16:53:41;3.10;57.20
14877;DHT22;22152;48.158;17.118;2022-12-11T16:56:07;3.10;57.10
14877;DHT22;22152;48.158;17.118;2022-12-11T16:58:34;3.10;57.10
14877;DHT22;22152;48.158;17.118;2022-12-11T17:01:00;3.10;57.00
14877;DHT22;22152;48.158;17.118;2022-12-11T17:03:28;3.10;57.00
14877;DHT22;22152;48.158;17.118;2022-12-11T17:05:54;3.10;57.20
14877;DHT22;22152;48.158;17.118;2022-12-11T17:08:21;3.10;57.20
14877;DHT22;22152;48.158;17.118;2022-12-11T17:10:46;3.20;57.00
14877;DHT22;22152;48.158;17.118;2022-12-11T17:13:12;3.10;56.90
14877;DHT22;22152;48.158;17.118;2022-12-11T17:15:39;3.10;57.00
14877;DHT22;22152;48.158;17.118;2022-12-11T17:18:06;3.10;57.00
14877;DHT22;22152;48.158;17.118;2022-12-11T17:20:31;3.10;57.00
14877;DHT22;22152;48.158;17.118;2022-12-11T17:23:00;3.10;57.00